sensor_id;sensor_type;location;lat;lon;timestamp;P1;durP1;ratioP1;P2;durP2;ratioP2
23517;SDS011;11935;50.878;4.392;2023-04-01T00:00:58;0.15;;;0.15;;
23517;SDS011;11935;50.878;4.392;2023-04-01T00:03:25;2.30;;;2.20;;
23517;SDS011;11935;50.878;4.392;2023-04-01T00:05:52;0.10;;;0.10;;
23517;SDS011;11935;50.878;4.392;2023-04-01T00:08:18;0.10;;;0.10;;
23517;SDS011;11935;50.878;4.392;2023-04-01T00:10:44;0.10;;;0.10;;
23517;SDS011;11935;50.878;4.392;2023-04-01T00:13:10;0.03;;;0.03;;
23517;SDS011;11935;50.878;4.392;2023-04-01T00:15:36;0.10;;;0.10;;
23517;SDS011;11935;50.878;4.392;2023-04-01T00:18:03;0.10;;;0.10;;
23517;SDS011;11935;50.878;4.392;2023-04-01T00:20:29;0.10;;;0.10;;
23517;SDS011;11935;50.878;4.392;2023-04-01T00:22:56;0.10;;;0.10;;
23517;SDS011;11935;50.878;4.392;2023-04-01T00:25:22;0.10;;;0.10;;
23517;SDS011;11935;50.878;4.392;2023-04-01T00:27:48;0.10;;;0.10;;
23517;SDS011;11935;50.878;4.392;2023-04-01T00:30:15;0.10;;;0.10;;
23517;SDS011;11935;50.878;4.392;2023-04-01T00:32:41;0.10;;;0.10;;
23517;SDS011;11935;50.878;4.392;2023-04-01T00:35:07;0.00;;;0.00;;
23517;SDS011;11935;50.878;4.392;2023-04-01T00:37:34;0.10;;;0.10;;
23517;SDS011;11935;50.878;4.392;2023-04-01T00:40:02;0.00;;;0.00;;
23517;SDS011;11935;50.878;4.392;2023-04-01T00:42:29;0.10;;;0.10;;
23517;SDS011;11935;50.878;4.392;2023-04-01T00:44:55;0.10;;;0.10;;
23517;SDS011;11935;50.878;4.392;2023-04-01T00:47:22;0.00;;;0.00;;
23517;SDS011;11935;50.878;4.392;2023-04-01T00:52:17;0.10;;;0.10;;
23517;SDS011;11935;50.878;4.392;2023-04-01T00:54:45;0.00;;;0.00;;
23517;SDS011;11935;50.878;4.392;2023-04-01T00:57:12;0.00;;;0.00;;
23517;SDS011;11935;50.878;4.392;2023-04-01T00:59:40;0.10;;;0.10;;
23517;SDS011;11935;50.878;4.392;2023-04-01T01:04:34;0.10;;;0.10;;
23517;SDS011;11935;50.878;4.392;2023-04-01T01:07:04;0.10;;;0.10;;
23517;SDS011;11935;50.878;4.392;2023-04-01T01:12:14;0.10;;;0.10;;
23517;SDS011;11935;50.878;4.392;2023-04-01T01:14:55;0.10;;;0.10;;
23517;SDS011;11935;50.878;4.392;2023-04-01T01:17:43;0.03;;;0.03;;
23517;SDS011;11935;50.878;4.392;2023-04-01T01:28:21;0.10;;;0.10;;
23517;SDS011;11935;50.878;4.392;2023-04-01T01:31:09;0.10;;;0.10;;
23517;SDS011;11935;50.878;4.392;2023-04-01T01:36:35;0.10;;;0.10;;
23517;SDS011;11935;50.878;4.392;2023-04-01T01:39:03;0.00;;;0.00;;
23517;SDS011;11935;50.878;4.392;2023-04-01T01:41:30;0.00;;;0.00;;
23517;SDS011;11935;50.878;4.392;2023-04-01T01:43:57;0.10;;;0.10;;
23517;SDS011;11935;50.878;4.392;2023-04-01T01:46:25;0.10;;;0.10;;
23517;SDS011;11935;50.878;4.392;2023-04-01T01:48:53;0.10;;;0.10;;
23517;SDS011;11935;50.878;4.392;2023-04-01T01:51:20;0.10;;;0.10;;
23517;SDS011;11935;50.878;4.392;2023-04-01T01:53:47;0.00;;;0.00;;
23517;SDS011;11935;50.878;4.392;2023-04-01T01:56:13;0.00;;;0.00;;
23517;SDS011;11935;50.878;4.392;2023-04-01T01:58:43;0.10;;;0.10;;
23517;SDS011;11935;50.878;4.392;2023-04-01T02:01:11;0.10;;;0.10;;
23517;SDS011;11935;50.878;4.392;2023-04-01T02:03:39;0.10;;;0.10;;
23517;SDS011;11935;50.878;4.392;2023-04-01T02:06:07;0.10;;;0.10;;
23517;SDS011;11935;50.878;4.392;2023-04-01T02:08:34;0.00;;;0.00;;
23517;SDS011;11935;50.878;4.392;2023-04-01T02:11:03;0.00;;;0.00;;
23517;SDS011;11935;50.878;4.392;2023-04-01T02:13:35;0.10;;;0.10;;
23517;SDS011;11935;50.878;4.392;2023-04-01T02:16:05;0.10;;;0.10;;
23517;SDS011;11935;50.878;4.392;2023-04-01T02:18:33;0.10;;;0.10;;
23517;SDS011;11935;50.878;4.392;2023-04-01T02:23:27;0.10;;;0.10;;
23517;SDS011;11935;50.878;4.392;2023-04-01T02:25:53;0.00;;;0.00;;
23517;SDS011;11935;50.878;4.392;2023-04-01T02:28:20;0.00;;;0.00;;
23517;SDS011;11935;50.878;4.392;2023-04-01T02:30:46;0.10;;;0.10;;
23517;SDS011;11935;50.878;4.392;2023-04-01T02:33:13;0.10;;;0.10;;
23517;SDS011;11935;50.878;4.392;2023-04-01T02:35:40;0.05;;;0.05;;
23517;SDS011;11935;50.878;4.392;2023-04-01T02:38:06;0.10;;;0.10;;
23517;SDS011;11935;50.878;4.392;2023-04-01T02:40:43;0.10;;;0.10;;
23517;SDS011;11935;50.878;4.392;2023-04-01T02:43:09;0.00;;;0.00;;
23517;SDS011;11935;50.878;4.392;2023-04-01T02:45:36;0.00;;;0.00;;
23517;SDS011;11935;50.878;4.392;2023-04-01T02:48:02;0.00;;;0.00;;
23517;SDS011;11935;50.878;4.392;2023-04-01T02:50:28;0.08;;;0.08;;
23517;SDS011;11935;50.878;4.392;2023-04-01T02:52:54;0.10;;;0.10;;
23517;SDS011;11935;50.878;4.392;2023-04-01T02:55:21;0.00;;;0.00;;
23517;SDS011;11935;50.878;4.392;2023-04-01T02:57:47;0.00;;;0.00;;
23517;SDS011;11935;50.878;4.392;2023-04-01T03:00:13;0.03;;;0.03;;
23517;SDS011;11935;50.878;4.392;2023-04-01T03:02:39;0.10;;;0.10;;
23517;SDS011;11935;50.878;4.392;2023-04-01T03:05:05;0.10;;;0.10;;
23517;SDS011;11935;50.878;4.392;2023-04-01T03:07:32;0.10;;;0.10;;
23517;SDS011;11935;50.878;4.392;2023-04-01T03:09:58;2.65;;;2.50;;
23517;SDS011;11935;50.878;4.392;2023-04-01T03:12:24;0.10;;;0.10;;
23517;SDS011;11935;50.878;4.392;2023-04-01T03:14:50;0.00;;;0.00;;
23517;SDS011;11935;50.878;4.392;2023-04-01T03:17:16;0.00;;;0.00;;
23517;SDS011;11935;50.878;4.392;2023-04-01T03:19:42;0.10;;;0.10;;
23517;SDS011;11935;50.878;4.392;2023-04-01T03:22:11;0.10;;;0.10;;
23517;SDS011;11935;50.878;4.392;2023-04-01T03:24:38;0.05;;;0.05;;
23517;SDS011;11935;50.878;4.392;2023-04-01T03:27:04;0.00;;;0.00;;
23517;SDS011;11935;50.878;4.392;2023-04-01T03:29:30;0.10;;;0.10;;
23517;SDS011;11935;50.878;4.392;2023-04-01T03:31:56;0.10;;;0.10;;
23517;SDS011;11935;50.878;4.392;2023-04-01T03:34:24;0.00;;;0.00;;
23517;SDS011;11935;50.878;4.392;2023-04-01T03:36:51;0.05;;;0.05;;
23517;SDS011;11935;50.878;4.392;2023-04-01T03:39:17;0.00;;;0.00;;
23517;SDS011;11935;50.878;4.392;2023-04-01T03:41:43;0.10;;;0.10;;
23517;SDS011;11935;50.878;4.392;2023-04-01T03:44:10;0.13;;;0.13;;
23517;SDS011;11935;50.878;4.392;2023-04-01T03:46:36;0.00;;;0.00;;
23517;SDS011;11935;50.878;4.392;2023-04-01T03:49:02;0.10;;;0.10;;
23517;SDS011;11935;50.878;4.392;2023-04-01T03:51:28;0.10;;;0.10;;
23517;SDS011;11935;50.878;4.392;2023-04-01T03:53:55;0.10;;;0.10;;
23517;SDS011;11935;50.878;4.392;2023-04-01T03:56:21;0.10;;;0.10;;
23517;SDS011;11935;50.878;4.392;2023-04-01T03:58:47;0.10;;;0.10;;
23517;SDS011;11935;50.878;4.392;2023-04-01T04:01:17;0.10;;;0.10;;
23517;SDS011;11935;50.878;4.392;2023-04-01T04:03:44;0.10;;;0.10;;
23517;SDS011;11935;50.878;4.392;2023-04-01T04:06:11;0.00;;;0.00;;
23517;SDS011;11935;50.878;4.392;2023-04-01T04:08:37;0.10;;;0.10;;
23517;SDS011;11935;50.878;4.392;2023-04-01T04:11:04;0.10;;;0.10;;
23517;SDS011;11935;50.878;4.392;2023-04-01T04:13:30;0.10;;;0.10;;
23517;SDS011;11935;50.878;4.392;2023-04-01T04:15:56;0.10;;;0.10;;
23517;SDS011;11935;50.878;4.392;2023-04-01T04:18:22;0.03;;;0.03;;
23517;SDS011;11935;50.878;4.392;2023-04-01T04:20:48;0.00;;;0.00;;
23517;SDS011;11935;50.878;4.392;2023-04-01T04:23:16;0.10;;;0.10;;
23517;SDS011;11935;50.878;4.392;2023-04-01T04:25:58;1.45;;;0.90;;
23517;SDS011;11935;50.878;4.392;2023-04-01T04:28:26;0.10;;;0.10;;
23517;SDS011;11935;50.878;4.392;2023-04-01T04:30:52;0.10;;;0.10;;
23517;SDS011;11935;50.878;4.392;2023-04-01T04:33:19;0.10;;;0.10;;
23517;SDS011;11935;50.878;4.392;2023-04-01T04:35:45;0.08;;;0.08;;
23517;SDS011;11935;50.878;4.392;2023-04-01T04:38:11;0.10;;;0.10;;
23517;SDS011;11935;50.878;4.392;2023-04-01T04:40:40;0.05;;;0.05;;
23517;SDS011;11935;50.878;4.392;2023-04-01T04:43:06;0.10;;;0.10;;
23517;SDS011;11935;50.878;4.392;2023-04-01T04:45:32;0.00;;;0.00;;
23517;SDS011;11935;50.878;4.392;2023-04-01T04:47:58;0.05;;;0.05;;
23517;SDS011;11935;50.878;4.392;2023-04-01T04:50:24;0.10;;;0.10;;
23517;SDS011;11935;50.878;4.392;2023-04-01T04:52:51;0.00;;;0.00;;
23517;SDS011;11935;50.878;4.392;2023-04-01T04:55:17;0.10;;;0.10;;
23517;SDS011;11935;50.878;4.392;2023-04-01T04:57:43;0.10;;;0.10;;
23517;SDS011;11935;50.878;4.392;2023-04-01T05:00:09;0.10;;;0.10;;
23517;SDS011;11935;50.878;4.392;2023-04-01T05:02:36;0.10;;;0.10;;
23517;SDS011;11935;50.878;4.392;2023-04-01T05:05:02;0.10;;;0.10;;
23517;SDS011;11935;50.878;4.392;2023-04-01T05:07:29;0.10;;;0.10;;
23517;SDS011;11935;50.878;4.392;2023-04-01T05:09:55;0.00;;;0.00;;
23517;SDS011;11935;50.878;4.392;2023-04-01T05:12:21;0.10;;;0.10;;
23517;SDS011;11935;50.878;4.392;2023-04-01T05:14:47;0.00;;;0.00;;
23517;SDS011;11935;50.878;4.392;2023-04-01T05:17:13;0.10;;;0.10;;
23517;SDS011;11935;50.878;4.392;2023-04-01T05:19:39;0.10;;;0.10;;
23517;SDS011;11935;50.878;4.392;2023-04-01T05:22:05;0.10;;;0.10;;
23517;SDS011;11935;50.878;4.392;2023-04-01T05:24:32;0.00;;;0.00;;
23517;SDS011;11935;50.878;4.392;2023-04-01T05:26:58;0.10;;;0.10;;
23517;SDS011;11935;50.878;4.392;2023-04-01T05:29:25;0.00;;;0.00;;
23517;SDS011;11935;50.878;4.392;2023-04-01T05:31:51;0.10;;;0.10;;
23517;SDS011;11935;50.878;4.392;2023-04-01T05:34:17;0.10;;;0.10;;
23517;SDS011;11935;50.878;4.392;2023-04-01T05:36:43;0.10;;;0.10;;
23517;SDS011;11935;50.878;4.392;2023-04-01T05:39:10;0.10;;;0.10;;
23517;SDS011;11935;50.878;4.392;2023-04-01T05:41:36;0.05;;;0.05;;
23517;SDS011;11935;50.878;4.392;2023-04-01T05:44:03;0.10;;;0.10;;
23517;SDS011;11935;50.878;4.392;2023-04-01T05:46:29;0.10;;;0.10;;
23517;SDS011;11935;50.878;4.392;2023-04-01T05:48:55;0.10;;;0.10;;
23517;SDS011;11935;50.878;4.392;2023-04-01T05:51:21;0.90;;;0.55;;
23517;SDS011;11935;50.878;4.392;2023-04-01T05:53:47;0.10;;;0.10;;
23517;SDS011;11935;50.878;4.392;2023-04-01T05:56:13;0.17;;;0.17;;
23517;SDS011;11935;50.878;4.392;2023-04-01T05:58:40;0.03;;;0.03;;
23517;SDS011;11935;50.878;4.392;2023-04-01T06:01:07;0.10;;;0.10;;
23517;SDS011;11935;50.878;4.392;2023-04-01T06:03:33;0.50;;;0.50;;
23517;SDS011;11935;50.878;4.392;2023-04-01T06:05:59;0.10;;;0.10;;
23517;SDS011;11935;50.878;4.392;2023-04-01T06:08:26;0.10;;;0.10;;
23517;SDS011;11935;50.878;4.392;2023-04-01T06:11:04;0.10;;;0.10;;
23517;SDS011;11935;50.878;4.392;2023-04-01T06:24:16;0.03;;;0.03;;
23517;SDS011;11935;50.878;4.392;2023-04-01T06:32:04;0.10;;;0.10;;
23517;SDS011;11935;50.878;4.392;2023-04-01T06:52:33;0.10;;;0.10;;
23517;SDS011;11935;50.878;4.392;2023-04-01T06:57:48;0.40;;;0.40;;
23517;SDS011;11935;50.878;4.392;2023-04-01T07:00:35;0.10;;;0.10;;
23517;SDS011;11935;50.878;4.392;2023-04-01T07:03:05;0.22;;;0.22;;
23517;SDS011;11935;50.878;4.392;2023-04-01T07:05:32;0.10;;;0.10;;
23517;SDS011;11935;50.878;4.392;2023-04-01T07:08:01;0.10;;;0.10;;
23517;SDS011;11935;50.878;4.392;2023-04-01T07:10:38;0.10;;;0.10;;
23517;SDS011;11935;50.878;4.392;2023-04-01T07:13:11;0.10;;;0.10;;
23517;SDS011;11935;50.878;4.392;2023-04-01T07:15:42;0.10;;;0.10;;
23517;SDS011;11935;50.878;4.392;2023-04-01T07:18:15;0.10;;;0.10;;
23517;SDS011;11935;50.878;4.392;2023-04-01T07:20:42;0.10;;;0.10;;
23517;SDS011;11935;50.878;4.392;2023-04-01T07:23:31;0.10;;;0.10;;
23517;SDS011;11935;50.878;4.392;2023-04-01T07:26:15;0.10;;;0.10;;
23517;SDS011;11935;50.878;4.392;2023-04-01T07:28:42;0.00;;;0.00;;
23517;SDS011;11935;50.878;4.392;2023-04-01T07:34:01;0.10;;;0.10;;
23517;SDS011;11935;50.878;4.392;2023-04-01T07:46:48;0.10;;;0.10;;
23517;SDS011;11935;50.878;4.392;2023-04-01T07:52:02;0.10;;;0.10;;
23517;SDS011;11935;50.878;4.392;2023-04-01T07:54:50;0.10;;;0.10;;
23517;SDS011;11935;50.878;4.392;2023-04-01T07:57:19;0.10;;;0.10;;
23517;SDS011;11935;50.878;4.392;2023-04-01T08:02:15;0.00;;;0.00;;
23517;SDS011;11935;50.878;4.392;2023-04-01T08:07:35;0.10;;;0.10;;
23517;SDS011;11935;50.878;4.392;2023-04-01T08:10:16;0.10;;;0.10;;
23517;SDS011;11935;50.878;4.392;2023-04-01T08:18:03;0.10;;;0.10;;
23517;SDS011;11935;50.878;4.392;2023-04-01T08:23:00;0.10;;;0.10;;
23517;SDS011;11935;50.878;4.392;2023-04-01T08:25:30;0.10;;;0.10;;
23517;SDS011;11935;50.878;4.392;2023-04-01T08:28:30;0.10;;;0.10;;
23517;SDS011;11935;50.878;4.392;2023-04-01T08:31:05;0.10;;;0.10;;
23517;SDS011;11935;50.878;4.392;2023-04-01T08:33:34;0.10;;;0.10;;
23517;SDS011;11935;50.878;4.392;2023-04-01T08:36:05;0.10;;;0.10;;
23517;SDS011;11935;50.878;4.392;2023-04-01T08:38:34;0.10;;;0.10;;
23517;SDS011;11935;50.878;4.392;2023-04-01T08:43:36;0.00;;;0.00;;
23517;SDS011;11935;50.878;4.392;2023-04-01T08:56:34;0.00;;;0.00;;
23517;SDS011;11935;50.878;4.392;2023-04-01T09:21:58;0.10;;;0.10;;
23517;SDS011;11935;50.878;4.392;2023-04-01T09:27:28;0.10;;;0.10;;
23517;SDS011;11935;50.878;4.392;2023-04-01T09:30:04;0.00;;;0.00;;
23517;SDS011;11935;50.878;4.392;2023-04-01T09:50:32;0.10;;;0.10;;
23517;SDS011;11935;50.878;4.392;2023-04-01T09:58:07;0.10;;;0.10;;
23517;SDS011;11935;50.878;4.392;2023-04-01T10:00:40;0.00;;;0.00;;
23517;SDS011;11935;50.878;4.392;2023-04-01T10:37:32;0.10;;;0.10;;
23517;SDS011;11935;50.878;4.392;2023-04-01T10:43:06;3.10;;;1.65;;
23517;SDS011;11935;50.878;4.392;2023-04-01T11:08:58;1.35;;;1.00;;
23517;SDS011;11935;50.878;4.392;2023-04-01T11:14:07;2.38;;;0.70;;
23517;SDS011;11935;50.878;4.392;2023-04-01T11:19:20;0.95;;;0.40;;
23517;SDS011;11935;50.878;4.392;2023-04-01T11:32:34;2.13;;;0.85;;
23517;SDS011;11935;50.878;4.392;2023-04-01T11:45:35;2.47;;;1.45;;
23517;SDS011;11935;50.878;4.392;2023-04-01T11:50:34;4.47;;;1.42;;
23517;SDS011;11935;50.878;4.392;2023-04-01T12:00:42;1.73;;;0.93;;
23517;SDS011;11935;50.878;4.392;2023-04-01T12:18:37;3.97;;;1.30;;
23517;SDS011;11935;50.878;4.392;2023-04-01T12:31:35;5.13;;;1.40;;
23517;SDS011;11935;50.878;4.392;2023-04-01T12:34:24;2.50;;;1.40;;
23517;SDS011;11935;50.878;4.392;2023-04-01T12:39:22;2.70;;;1.63;;
23517;SDS011;11935;50.878;4.392;2023-04-01T12:42:04;5.88;;;1.90;;
23517;SDS011;11935;50.878;4.392;2023-04-01T12:52:11;2.65;;;1.17;;
23517;SDS011;11935;50.878;4.392;2023-04-01T12:54:45;1.88;;;1.20;;
23517;SDS011;11935;50.878;4.392;2023-04-01T13:03:15;2.15;;;1.35;;
23517;SDS011;11935;50.878;4.392;2023-04-01T13:13:28;1.80;;;1.60;;
23517;SDS011;11935;50.878;4.392;2023-04-01T13:16:16;4.05;;;1.60;;
23517;SDS011;11935;50.878;4.392;2023-04-01T13:29:27;3.50;;;1.67;;
23517;SDS011;11935;50.878;4.392;2023-04-01T13:32:00;3.03;;;1.10;;
23517;SDS011;11935;50.878;4.392;2023-04-01T13:49:38;2.22;;;1.20;;
23517;SDS011;11935;50.878;4.392;2023-04-01T13:52:54;1.67;;;0.98;;
23517;SDS011;11935;50.878;4.392;2023-04-01T14:05:43;2.42;;;0.98;;
23517;SDS011;11935;50.878;4.392;2023-04-01T14:15:55;1.85;;;1.08;;
23517;SDS011;11935;50.878;4.392;2023-04-01T14:18:33;1.17;;;0.90;;
23517;SDS011;11935;50.878;4.392;2023-04-01T14:31:47;1.27;;;0.80;;
23517;SDS011;11935;50.878;4.392;2023-04-01T14:34:23;2.55;;;1.20;;
23517;SDS011;11935;50.878;4.392;2023-04-01T14:42:38;1.85;;;1.00;;
23517;SDS011;11935;50.878;4.392;2023-04-01T14:50:13;1.45;;;0.80;;
23517;SDS011;11935;50.878;4.392;2023-04-01T14:52:55;2.00;;;1.05;;
23517;SDS011;11935;50.878;4.392;2023-04-01T14:55:29;1.90;;;0.90;;
23517;SDS011;11935;50.878;4.392;2023-04-01T14:58:04;0.77;;;0.70;;
23517;SDS011;11935;50.878;4.392;2023-04-01T15:03:26;3.40;;;1.20;;
23517;SDS011;11935;50.878;4.392;2023-04-01T15:14:17;0.82;;;0.77;;
23517;SDS011;11935;50.878;4.392;2023-04-01T15:17:01;2.92;;;1.23;;
23517;SDS011;11935;50.878;4.392;2023-04-01T15:19:35;1.85;;;1.42;;
23517;SDS011;11935;50.878;4.392;2023-04-01T15:25:19;1.77;;;1.00;;
23517;SDS011;11935;50.878;4.392;2023-04-01T15:27:39;3.13;;;1.30;;
23517;SDS011;11935;50.878;4.392;2023-04-01T15:30:27;7.50;;;1.85;;
23517;SDS011;11935;50.878;4.392;2023-04-01T15:35:39;2.45;;;1.70;;
23517;SDS011;11935;50.878;4.392;2023-04-01T16:03:59;1.67;;;1.00;;
23517;SDS011;11935;50.878;4.392;2023-04-01T16:11:38;1.17;;;1.05;;
23517;SDS011;11935;50.878;4.392;2023-04-01T16:14:19;1.17;;;0.98;;
23517;SDS011;11935;50.878;4.392;2023-04-01T16:22:05;1.13;;;0.77;;
23517;SDS011;11935;50.878;4.392;2023-04-01T16:27:08;1.35;;;1.08;;
23517;SDS011;11935;50.878;4.392;2023-04-01T16:34:41;2.10;;;0.98;;
23517;SDS011;11935;50.878;4.392;2023-04-01T16:44:50;2.38;;;0.95;;
23517;SDS011;11935;50.878;4.392;2023-04-01T16:47:20;2.95;;;1.08;;
23517;SDS011;11935;50.878;4.392;2023-04-01T16:52:15;0.65;;;0.65;;
23517;SDS011;11935;50.878;4.392;2023-04-01T16:54:50;0.70;;;0.60;;
23517;SDS011;11935;50.878;4.392;2023-04-01T16:59:55;0.30;;;0.30;;
23517;SDS011;11935;50.878;4.392;2023-04-01T17:02:28;0.20;;;0.20;;
23517;SDS011;11935;50.878;4.392;2023-04-01T17:05:08;1.75;;;0.65;;
23517;SDS011;11935;50.878;4.392;2023-04-01T17:26:48;3.83;;;1.98;;
23517;SDS011;11935;50.878;4.392;2023-04-01T17:29:31;3.75;;;1.98;;
23517;SDS011;11935;50.878;4.392;2023-04-01T17:32:10;20.05;;;6.75;;
23517;SDS011;11935;50.878;4.392;2023-04-01T17:37:28;20.00;;;8.23;;
23517;SDS011;11935;50.878;4.392;2023-04-01T17:39:59;3.45;;;1.55;;
23517;SDS011;11935;50.878;4.392;2023-04-01T17:42:36;1.65;;;1.38;;
23517;SDS011;11935;50.878;4.392;2023-04-01T17:45:04;2.53;;;1.70;;
23517;SDS011;11935;50.878;4.392;2023-04-01T17:50:48;4.43;;;2.03;;
23517;SDS011;11935;50.878;4.392;2023-04-01T17:55:48;4.43;;;1.50;;
23517;SDS011;11935;50.878;4.392;2023-04-01T17:58:46;2.08;;;1.60;;
23517;SDS011;11935;50.878;4.392;2023-04-01T18:01:17;3.38;;;1.80;;
23517;SDS011;11935;50.878;4.392;2023-04-01T18:06:32;3.30;;;2.42;;
23517;SDS011;11935;50.878;4.392;2023-04-01T18:23:56;8.35;;;3.80;;
23517;SDS011;11935;50.878;4.392;2023-04-01T18:26:28;4.40;;;3.70;;
23517;SDS011;11935;50.878;4.392;2023-04-01T18:31:38;5.35;;;4.35;;
23517;SDS011;11935;50.878;4.392;2023-04-01T18:34:49;5.47;;;4.90;;
23517;SDS011;11935;50.878;4.392;2023-04-01T18:37:02;7.93;;;5.65;;
23517;SDS011;11935;50.878;4.392;2023-04-01T18:42:07;7.72;;;6.00;;
23517;SDS011;11935;50.878;4.392;2023-04-01T18:44:46;8.55;;;6.13;;
23517;SDS011;11935;50.878;4.392;2023-04-01T18:50:02;8.48;;;5.85;;
23517;SDS011;11935;50.878;4.392;2023-04-01T18:57:37;9.90;;;5.65;;
23517;SDS011;11935;50.878;4.392;2023-04-01T19:00:08;8.98;;;6.82;;
23517;SDS011;11935;50.878;4.392;2023-04-01T19:02:43;11.43;;;6.93;;
23517;SDS011;11935;50.878;4.392;2023-04-01T19:05:16;9.48;;;6.93;;
23517;SDS011;11935;50.878;4.392;2023-04-01T19:07:54;9.52;;;6.32;;
23517;SDS011;11935;50.878;4.392;2023-04-01T19:18:00;11.90;;;8.45;;
23517;SDS011;11935;50.878;4.392;2023-04-01T19:25:54;16.77;;;10.75;;
23517;SDS011;11935;50.878;4.392;2023-04-01T19:38:19;18.73;;;10.55;;
23517;SDS011;11935;50.878;4.392;2023-04-01T19:43:24;18.67;;;11.20;;
23517;SDS011;11935;50.878;4.392;2023-04-01T19:45:53;24.02;;;11.52;;
23517;SDS011;11935;50.878;4.392;2023-04-01T19:51:25;19.27;;;10.48;;
23517;SDS011;11935;50.878;4.392;2023-04-01T19:56:54;20.17;;;11.00;;
23517;SDS011;11935;50.878;4.392;2023-04-01T20:01:55;19.25;;;10.38;;
23517;SDS011;11935;50.878;4.392;2023-04-01T20:04:25;19.65;;;9.57;;
23517;SDS011;11935;50.878;4.392;2023-04-01T20:14:54;15.32;;;8.50;;
23517;SDS011;11935;50.878;4.392;2023-04-01T20:17:26;12.23;;;7.88;;
23517;SDS011;11935;50.878;4.392;2023-04-01T20:20:00;13.95;;;8.88;;
23517;SDS011;11935;50.878;4.392;2023-04-01T20:27:43;19.17;;;9.13;;
23517;SDS011;11935;50.878;4.392;2023-04-01T20:30:30;21.40;;;9.60;;
23517;SDS011;11935;50.878;4.392;2023-04-01T20:35:43;20.90;;;9.15;;
23517;SDS011;11935;50.878;4.392;2023-04-01T20:38:23;19.10;;;8.80;;
23517;SDS011;11935;50.878;4.392;2023-04-01T20:41:19;15.88;;;9.27;;
23517;SDS011;11935;50.878;4.392;2023-04-01T20:46:39;18.70;;;8.95;;
23517;SDS011;11935;50.878;4.392;2023-04-01T20:52:36;18.30;;;9.30;;
23517;SDS011;11935;50.878;4.392;2023-04-01T20:54:51;18.90;;;8.88;;
23517;SDS011;11935;50.878;4.392;2023-04-01T20:57:21;20.83;;;10.32;;
23517;SDS011;11935;50.878;4.392;2023-04-01T21:00:15;18.35;;;9.98;;
23517;SDS011;11935;50.878;4.392;2023-04-01T21:05:17;24.88;;;12.60;;
23517;SDS011;11935;50.878;4.392;2023-04-01T21:31:03;35.75;;;15.38;;
23517;SDS011;11935;50.878;4.392;2023-04-01T21:33:36;26.70;;;12.90;;
23517;SDS011;11935;50.878;4.392;2023-04-01T21:38:58;22.27;;;12.75;;
23517;SDS011;11935;50.878;4.392;2023-04-01T21:41:30;26.98;;;12.13;;
23517;SDS011;11935;50.878;4.392;2023-04-01T21:49:42;27.95;;;13.82;;
23517;SDS011;11935;50.878;4.392;2023-04-01T21:52:07;22.65;;;13.50;;
23517;SDS011;11935;50.878;4.392;2023-04-01T21:57:22;32.90;;;14.68;;
23517;SDS011;11935;50.878;4.392;2023-04-01T22:02:41;31.65;;;13.45;;
23517;SDS011;11935;50.878;4.392;2023-04-01T22:05:30;22.55;;;13.68;;
23517;SDS011;11935;50.878;4.392;2023-04-01T22:10:30;24.10;;;14.95;;
23517;SDS011;11935;50.878;4.392;2023-04-01T22:13:00;20.40;;;11.93;;
23517;SDS011;11935;50.878;4.392;2023-04-01T22:15:52;21.15;;;12.57;;
23517;SDS011;11935;50.878;4.392;2023-04-01T22:20:59;9.90;;;6.22;;
23517;SDS011;11935;50.878;4.392;2023-04-01T22:23:31;8.60;;;4.85;;
23517;SDS011;11935;50.878;4.392;2023-04-01T22:28:58;16.20;;;9.85;;
23517;SDS011;11935;50.878;4.392;2023-04-01T22:31:40;17.40;;;10.40;;
23517;SDS011;11935;50.878;4.392;2023-04-01T22:34:20;14.48;;;8.73;;
23517;SDS011;11935;50.878;4.392;2023-04-01T22:37:04;17.48;;;10.07;;
23517;SDS011;11935;50.878;4.392;2023-04-01T22:42:06;18.27;;;11.13;;
23517;SDS011;11935;50.878;4.392;2023-04-01T22:44:42;19.00;;;10.82;;
23517;SDS011;11935;50.878;4.392;2023-04-01T22:50:03;12.35;;;8.70;;
23517;SDS011;11935;50.878;4.392;2023-04-01T22:52:43;17.35;;;10.48;;
23517;SDS011;11935;50.878;4.392;2023-04-01T22:55:25;18.30;;;10.95;;
23517;SDS011;11935;50.878;4.392;2023-04-01T22:57:59;17.27;;;10.70;;
23517;SDS011;11935;50.878;4.392;2023-04-01T23:00:27;20.83;;;12.45;;
23517;SDS011;11935;50.878;4.392;2023-04-01T23:05:46;12.90;;;7.70;;
23517;SDS011;11935;50.878;4.392;2023-04-01T23:10:53;15.27;;;8.00;;
23517;SDS011;11935;50.878;4.392;2023-04-01T23:13:22;2.72;;;2.10;;
23517;SDS011;11935;50.878;4.392;2023-04-01T23:15:51;0.95;;;0.75;;
23517;SDS011;11935;50.878;4.392;2023-04-01T23:28:44;4.30;;;2.70;;
23517;SDS011;11935;50.878;4.392;2023-04-01T23:31:29;4.68;;;3.40;;
23517;SDS011;11935;50.878;4.392;2023-04-01T23:33:59;3.58;;;1.83;;
23517;SDS011;11935;50.878;4.392;2023-04-01T23:36:26;5.85;;;2.97;;
23517;SDS011;11935;50.878;4.392;2023-04-01T23:38:52;1.60;;;1.05;;
23517;SDS011;11935;50.878;4.392;2023-04-01T23:41:26;2.45;;;2.13;;
23517;SDS011;11935;50.878;4.392;2023-04-01T23:43:56;0.20;;;0.20;;
23517;SDS011;11935;50.878;4.392;2023-04-01T23:46:23;1.88;;;1.48;;
23517;SDS011;11935;50.878;4.392;2023-04-01T23:48:49;1.65;;;1.55;;
23517;SDS011;11935;50.878;4.392;2023-04-01T23:51:18;2.53;;;1.05;;
23517;SDS011;11935;50.878;4.392;2023-04-01T23:53:45;4.70;;;4.07;;
23517;SDS011;11935;50.878;4.392;2023-04-01T23:56:12;17.48;;;9.63;;
23517;SDS011;11935;50.878;4.392;2023-04-01T23:58:41;12.27;;;7.45;;
